Time;durP1;ratioP1;P1;durP2;ratioP2;P2;SDS_P1;SDS_P2;PMS_P1;PMS_P2;Temp;Humidity;BMP_temperature;BMP_pressure;BME280_temperature;BME280_humidity;BME280_pressure;Samples;Min_cycle;Max_cycle;Signal;HPM_P1;HPM_P2
2023/01/11 00:01:05;;;;;;;6.70;1.10;;;;;;;;;;5019048;28;20493;-88
2023/01/11 00:03:32;;;;;;;6.95;1.48;;;;;;;;;;4998899;28;20423;-87
2023/01/11 00:05:59;;;;;;;6.88;0.98;;;;;;;;;;4996412;28;20070;-87
2023/01/11 00:08:26;;;;;;;8.63;1.02;;;;;;;;;;4996689;28;20046;-86
2023/01/11 00:10:53;;;;;;;5.28;1.17;;;;;;;;;;4996435;28;20052;-86
2023/01/11 00:13:19;;;;;;;4.10;1.00;;;;;;;;;;4996132;28;20145;-88
2023/01/11 00:15:46;;;;;;;4.97;1.20;;;;;;;;;;4997928;28;20057;-87
2023/01/11 00:18:12;;;;;;;6.75;1.27;;;;;;;;;;4998699;28;20128;-87
2023/01/11 00:20:39;;;;;;;7.95;1.40;;;;;;;;;;5012259;28;20220;-87
2023/01/11 00:23:06;;;;;;;4.82;1.00;;;;;;;;;;4996457;28;20054;-87
2023/01/11 00:25:32;;;;;;;11.85;1.60;;;;;;;;;;4997519;28;20487;-87
2023/01/11 00:27:59;;;;;;;5.95;1.15;;;;;;;;;;5027990;28;20038;-87
2023/01/11 00:30:25;;;;;;;6.85;1.05;;;;;;;;;;5019877;28;20050;-88
2023/01/11 00:32:58;;;;;;;6.28;1.15;;;;;;;;;;4999418;28;20050;-87
2023/01/11 00:35:26;;;;;;;6.93;1.35;;;;;;;;;;4997638;28;20085;-88
2023/01/11 00:37:53;;;;;;;4.40;1.00;;;;;;;;;;5005737;28;20044;-88
2023/01/11 00:40:19;;;;;;;10.68;1.40;;;;;;;;;;5021661;28;20081;-88
2023/01/11 00:48:16;;;;;;;8.77;0.98;;;;;;;;;;5036149;28;20045;-87
2023/01/11 00:50:46;;;;;;;6.05;1.13;;;;;;;;;;5017150;28;20046;-86
2023/01/11 00:53:13;;;;;;;4.40;0.98;;;;;;;;;;5036093;28;20064;-87
2023/01/11 00:55:39;;;;;;;8.18;1.55;;;;;;;;;;5019997;28;20135;-86
2023/01/11 00:58:06;;;;;;;3.00;0.70;;;;;;;;;;5038226;28;20113;-86
2023/01/11 01:00:32;;;;;;;8.30;1.10;;;;;;;;;;5010138;28;20057;-87
2023/01/11 01:02:59;;;;;;;3.65;1.00;;;;;;;;;;5017522;28;20056;-87
2023/01/11 01:05:25;;;;;;;6.18;1.35;;;;;;;;;;5005742;28;20386;-88
2023/01/11 01:07:52;;;;;;;8.15;1.10;;;;;;;;;;5025316;28;20065;-87
2023/01/11 01:10:19;;;;;;;5.13;1.10;;;;;;;;;;4999215;28;20077;-86
2023/01/11 01:15:31;;;;;;;4.80;1.17;;;;;;;;;;5015505;28;20060;-86
2023/01/11 01:17:57;;;;;;;4.88;1.23;;;;;;;;;;5016132;28;20060;-89
2023/01/11 01:20:24;;;;;;;5.93;1.10;;;;;;;;;;5000207;28;20566;-88
2023/01/11 01:22:51;;;;;;;5.88;1.25;;;;;;;;;;5031835;28;20488;-88
2023/01/11 01:25:17;;;;;;;6.07;1.00;;;;;;;;;;5000342;28;20080;-85
2023/01/11 01:27:44;;;;;;;6.97;1.00;;;;;;;;;;5030552;28;20062;-88
2023/01/11 01:30:10;;;;;;;7.10;1.20;;;;;;;;;;5015083;28;20054;-86
2023/01/11 01:32:37;;;;;;;4.43;0.90;;;;;;;;;;4996921;28;20049;-87
2023/01/11 01:35:05;;;;;;;6.00;1.10;;;;;;;;;;5002751;28;20038;-85
2023/01/11 01:37:31;;;;;;;4.70;1.00;;;;;;;;;;5005812;28;20129;-88
2023/01/11 01:39:58;;;;;;;4.30;0.95;;;;;;;;;;5026194;28;20069;-88
2023/01/11 01:42:24;;;;;;;5.70;1.15;;;;;;;;;;5014088;28;20168;-87
2023/01/11 01:44:56;;;;;;;6.53;1.05;;;;;;;;;;4998141;28;20412;-88
2023/01/11 01:47:31;;;;;;;4.47;0.88;;;;;;;;;;5024254;28;20077;-89
2023/01/11 01:49:59;;;;;;;7.32;1.10;;;;;;;;;;5014584;28;20046;-85
2023/01/11 01:52:28;;;;;;;5.25;0.98;;;;;;;;;;5015845;28;20466;-89
2023/01/11 01:54:55;;;;;;;3.00;1.00;;;;;;;;;;4998853;28;20137;-88
2023/01/11 01:57:25;;;;;;;3.15;1.10;;;;;;;;;;5014011;28;20046;-88
2023/01/11 01:59:52;;;;;;;4.38;1.02;;;;;;;;;;5014459;28;20046;-88
2023/01/11 02:02:21;;;;;;;2.58;0.93;;;;;;;;;;5013973;28;20129;-88
2023/01/11 02:04:47;;;;;;;3.28;0.77;;;;;;;;;;5013152;28;20136;-87
2023/01/11 02:07:24;;;;;;;5.80;1.00;;;;;;;;;;4996567;28;20046;-88
2023/01/11 02:09:53;;;;;;;5.50;0.80;;;;;;;;;;5014825;28;20054;-87
2023/01/11 02:12:20;;;;;;;6.38;0.80;;;;;;;;;;5015029;28;20053;-85
2023/01/11 02:14:47;;;;;;;4.70;0.77;;;;;;;;;;4998254;28;20050;-85
2023/01/11 02:17:14;;;;;;;2.70;0.70;;;;;;;;;;4999968;28;20482;-87
2023/01/11 02:19:44;;;;;;;6.72;1.00;;;;;;;;;;4981009;28;20126;-87
2023/01/11 02:22:13;;;;;;;4.13;1.00;;;;;;;;;;4997654;28;20052;-86
2023/01/11 02:24:40;;;;;;;3.42;0.80;;;;;;;;;;5015548;28;20078;-86
2023/01/11 02:27:22;;;;;;;4.45;0.63;;;;;;;;;;5028097;28;20065;-87
2023/01/11 02:30:02;;;;;;;5.28;0.90;;;;;;;;;;4999045;28;20061;-87
2023/01/11 02:32:48;;;;;;;2.95;0.88;;;;;;;;;;4997610;28;20387;-84
2023/01/11 02:35:21;;;;;;;3.22;0.52;;;;;;;;;;5016392;28;20065;-87
2023/01/11 02:37:54;;;;;;;4.25;0.73;;;;;;;;;;5016627;28;20056;-86
2023/01/11 02:40:26;;;;;;;2.00;0.60;;;;;;;;;;5021421;28;20049;-86
2023/01/11 02:46:10;;;;;;;2.38;0.90;;;;;;;;;;5035433;28;20057;-87
2023/01/11 02:48:40;;;;;;;3.03;0.60;;;;;;;;;;5017307;28;20049;-86
2023/01/11 02:51:11;;;;;;;2.38;0.60;;;;;;;;;;5035255;28;20049;-87
2023/01/11 02:53:46;;;;;;;4.30;0.90;;;;;;;;;;5017309;28;20064;-86
2023/01/11 02:56:15;;;;;;;2.92;0.73;;;;;;;;;;5016800;28;20152;-88
2023/01/11 02:58:43;;;;;;;4.90;0.52;;;;;;;;;;5016427;28;20124;-87
2023/01/11 03:01:10;;;;;;;2.50;0.80;;;;;;;;;;5022697;28;20076;-89
2023/01/11 03:03:37;;;;;;;3.13;0.75;;;;;;;;;;5034731;28;20045;-88
2023/01/11 03:06:06;;;;;;;2.03;0.65;;;;;;;;;;5030315;28;20052;-87
2023/01/11 03:08:59;;;;;;;1.85;0.50;;;;;;;;;;5016875;28;20110;-88
2023/01/11 03:14:46;;;;;;;2.00;0.60;;;;;;;;;;5018580;28;20072;-88
2023/01/11 03:17:21;;;;;;;1.90;0.60;;;;;;;;;;4979453;28;20122;-88
2023/01/11 03:19:50;;;;;;;3.97;0.60;;;;;;;;;;4999494;28;20153;-86
2023/01/11 03:22:23;;;;;;;1.67;0.55;;;;;;;;;;4999249;28;20505;-87
2023/01/11 03:24:54;;;;;;;1.27;0.50;;;;;;;;;;5034142;28;20285;-84
2023/01/11 03:27:28;;;;;;;3.10;0.80;;;;;;;;;;5014402;28;20038;-88
2023/01/11 03:29:55;;;;;;;1.90;0.70;;;;;;;;;;5017040;28;20054;-86
2023/01/11 03:32:27;;;;;;;1.10;0.52;;;;;;;;;;5021842;28;20050;-88
2023/01/11 03:35:01;;;;;;;3.47;0.60;;;;;;;;;;5004768;28;20323;-86
2023/01/11 03:37:33;;;;;;;5.82;0.73;;;;;;;;;;5003509;28;20054;-87
2023/01/11 03:40:03;;;;;;;1.27;0.60;;;;;;;;;;5003767;28;20053;-87
2023/01/11 03:42:31;;;;;;;2.22;0.70;;;;;;;;;;5004206;28;20144;-87
2023/01/11 03:44:59;;;;;;;2.83;0.70;;;;;;;;;;5010886;28;20115;-89
2023/01/11 03:47:27;;;;;;;1.98;0.50;;;;;;;;;;5004403;28;20046;-88
2023/01/11 03:49:57;;;;;;;2.47;0.50;;;;;;;;;;5022027;28;20064;-88
2023/01/11 03:52:28;;;;;;;5.07;0.50;;;;;;;;;;5004817;28;20049;-88
2023/01/11 03:54:55;;;;;;;2.65;0.50;;;;;;;;;;5003522;28;20057;-88
2023/01/11 03:57:23;;;;;;;2.72;0.65;;;;;;;;;;5004873;28;20070;-88
2023/01/11 03:59:50;;;;;;;1.63;0.60;;;;;;;;;;5001723;28;20454;-90
2023/01/11 04:02:21;;;;;;;1.50;0.50;;;;;;;;;;5021840;28;20104;-88
2023/01/11 04:04:47;;;;;;;1.23;0.50;;;;;;;;;;5005123;28;20125;-88
2023/01/11 04:07:14;;;;;;;2.55;0.80;;;;;;;;;;5002538;28;20056;-87
2023/01/11 04:09:41;;;;;;;2.83;0.60;;;;;;;;;;5002378;28;20073;-87
2023/01/11 04:12:07;;;;;;;2.10;0.60;;;;;;;;;;5020370;28;20372;-87
2023/01/11 04:14:34;;;;;;;3.13;0.55;;;;;;;;;;5001507;28;20049;-89
2023/01/11 04:17:00;;;;;;;1.48;0.60;;;;;;;;;;5009666;28;20056;-87
2023/01/11 04:19:27;;;;;;;2.17;0.73;;;;;;;;;;5018483;28;20451;-89
2023/01/11 04:21:53;;;;;;;2.25;0.68;;;;;;;;;;5038304;28;20073;-88
2023/01/11 04:24:20;;;;;;;1.88;0.50;;;;;;;;;;5038468;28;20065;-85
2023/01/11 04:26:47;;;;;;;4.47;0.60;;;;;;;;;;5024605;28;20062;-87
2023/01/11 04:29:13;;;;;;;1.27;0.77;;;;;;;;;;4999696;28;20511;-86
2023/01/11 04:31:40;;;;;;;1.83;0.85;;;;;;;;;;5018034;28;20050;-89
2023/01/11 04:34:06;;;;;;;1.23;0.45;;;;;;;;;;4999916;28;20058;-87
2023/01/11 04:36:32;;;;;;;1.33;0.60;;;;;;;;;;5003066;28;20050;-88
2023/01/11 04:38:59;;;;;;;3.70;0.70;;;;;;;;;;5011869;28;20061;-83
2023/01/11 04:44:10;;;;;;;2.67;0.70;;;;;;;;;;5036888;28;20448;-86
2023/01/11 04:46:37;;;;;;;3.50;0.80;;;;;;;;;;5021971;28;20064;-88
2023/01/11 04:49:03;;;;;;;2.95;0.50;;;;;;;;;;5040380;28;20069;-87
2023/01/11 04:51:30;;;;;;;3.85;0.63;;;;;;;;;;5047425;28;20034;-86
2023/01/11 04:53:56;;;;;;;1.23;0.60;;;;;;;;;;5040879;28;20058;-86
2023/01/11 04:56:23;;;;;;;1.25;0.60;;;;;;;;;;5040774;28;20064;-88
2023/01/11 04:58:49;;;;;;;1.77;0.70;;;;;;;;;;5022982;28;20049;-88
2023/01/11 05:01:17;;;;;;;3.17;1.00;;;;;;;;;;5010361;28;20128;-88
2023/01/11 05:03:44;;;;;;;2.10;0.57;;;;;;;;;;5040918;28;20037;-86
2023/01/11 05:06:11;;;;;;;3.75;0.85;;;;;;;;;;5018038;28;20144;-88
2023/01/11 05:08:38;;;;;;;2.33;0.60;;;;;;;;;;5001371;28;20125;-86
2023/01/11 05:11:05;;;;;;;4.88;0.63;;;;;;;;;;5000730;28;20057;-88
2023/01/11 05:13:41;;;;;;;1.45;0.60;;;;;;;;;;5004087;28;20061;-88
2023/01/11 05:16:24;;;;;;;1.83;0.68;;;;;;;;;;5000746;28;20601;-88
2023/01/11 05:18:55;;;;;;;1.42;0.60;;;;;;;;;;5028784;28;20124;-86
2023/01/11 05:21:23;;;;;;;3.88;0.68;;;;;;;;;;5009066;28;20064;-86
2023/01/11 05:23:49;;;;;;;3.08;0.77;;;;;;;;;;5011645;28;20050;-86
2023/01/11 05:26:17;;;;;;;3.55;0.98;;;;;;;;;;5011885;28;20462;-87
2023/01/11 05:28:45;;;;;;;2.22;0.82;;;;;;;;;;5016580;28;20056;-84
2023/01/11 05:31:11;;;;;;;3.67;1.10;;;;;;;;;;5024340;28;20050;-85
2023/01/11 05:33:38;;;;;;;3.17;0.75;;;;;;;;;;5035641;28;20055;-85
2023/01/11 05:36:06;;;;;;;1.30;0.70;;;;;;;;;;5019011;28;20049;-86
2023/01/11 05:38:32;;;;;;;3.00;0.85;;;;;;;;;;5016590;28;20176;-86
2023/01/11 05:41:00;;;;;;;2.40;0.68;;;;;;;;;;5009171;28;20049;-87
2023/01/11 05:43:27;;;;;;;2.70;1.00;;;;;;;;;;5027888;28;20037;-85
2023/01/11 05:45:54;;;;;;;2.35;1.00;;;;;;;;;;5020012;28;20046;-87
2023/01/11 05:48:21;;;;;;;2.83;1.10;;;;;;;;;;5015114;28;20079;-87
2023/01/11 05:50:51;;;;;;;3.08;1.10;;;;;;;;;;5017860;28;20049;-86
2023/01/11 05:53:18;;;;;;;3.28;0.73;;;;;;;;;;5007833;28;20185;-87
2023/01/11 05:55:55;;;;;;;2.67;0.98;;;;;;;;;;5000057;28;20070;-86
2023/01/11 05:58:22;;;;;;;2.97;1.00;;;;;;;;;;5008694;28;20074;-86
2023/01/11 06:00:50;;;;;;;2.78;0.75;;;;;;;;;;5017039;28;20050;-88
2023/01/11 06:03:16;;;;;;;2.83;1.05;;;;;;;;;;5000247;28;20053;-88
2023/01/11 06:05:43;;;;;;;2.92;0.95;;;;;;;;;;5012875;28;20081;-87
2023/01/11 06:08:11;;;;;;;1.58;1.00;;;;;;;;;;5036261;28;20064;-87
2023/01/11 06:10:40;;;;;;;3.05;1.20;;;;;;;;;;5023033;28;20113;-87
2023/01/11 06:13:25;;;;;;;2.35;0.90;;;;;;;;;;5025230;28;20058;-88
2023/01/11 06:16:01;;;;;;;3.33;1.08;;;;;;;;;;5072170;27;1400472;-80
2023/01/11 06:18:35;;;;;;;1.70;0.80;;;;;;;;;;5083283;28;20084;-83
2023/01/11 06:21:02;;;;;;;0.98;0.70;;;;;;;;;;5074333;28;20072;-80
2023/01/11 06:23:29;;;;;;;2.58;0.70;;;;;;;;;;5079851;28;20040;-80
2023/01/11 06:25:55;;;;;;;0.93;0.60;;;;;;;;;;5091513;28;20143;-82
2023/01/11 06:28:21;;;;;;;1.60;0.75;;;;;;;;;;5094198;28;20073;-82
2023/01/11 06:30:52;;;;;;;0.70;0.60;;;;;;;;;;5092818;28;20080;-81
2023/01/11 06:33:18;;;;;;;0.90;0.55;;;;;;;;;;5073108;28;20356;-81
2023/01/11 06:35:44;;;;;;;0.75;0.60;;;;;;;;;;5089582;28;20036;-80
2023/01/11 06:38:12;;;;;;;0.52;0.40;;;;;;;;;;5086236;28;20055;-81
2023/01/11 06:40:39;;;;;;;1.08;0.50;;;;;;;;;;5088578;28;20055;-79
2023/01/11 06:43:06;;;;;;;1.50;0.50;;;;;;;;;;5088594;28;20048;-81
2023/01/11 06:45:32;;;;;;;1.52;0.50;;;;;;;;;;5076973;28;20053;-82
2023/01/11 06:47:59;;;;;;;1.00;0.40;;;;;;;;;;5075534;28;20058;-80
2023/01/11 06:50:26;;;;;;;0.77;0.50;;;;;;;;;;5076042;28;20059;-79
2023/01/11 06:52:56;;;;;;;0.73;0.45;;;;;;;;;;5075114;28;20044;-80
2023/01/11 06:55:23;;;;;;;1.80;0.55;;;;;;;;;;5076375;28;20048;-79
2023/01/11 06:57:49;;;;;;;0.93;0.40;;;;;;;;;;5072874;28;20045;-80
2023/01/11 07:00:16;;;;;;;0.88;0.40;;;;;;;;;;5078682;28;20044;-80
2023/01/11 07:02:43;;;;;;;0.98;0.32;;;;;;;;;;5072023;28;20056;-81
2023/01/11 07:05:10;;;;;;;0.93;0.50;;;;;;;;;;5069722;28;20059;-80
2023/01/11 07:07:37;;;;;;;1.50;0.52;;;;;;;;;;5086253;28;20558;-80
2023/01/11 07:10:08;;;;;;;1.13;0.40;;;;;;;;;;5081690;28;20060;-79
2023/01/11 07:12:34;;;;;;;1.15;0.50;;;;;;;;;;5078288;28;20052;-81
2023/01/11 07:15:01;;;;;;;0.85;0.30;;;;;;;;;;5069374;28;20048;-81
2023/01/11 07:17:28;;;;;;;1.30;0.57;;;;;;;;;;5076057;28;20054;-80
2023/01/11 07:19:54;;;;;;;0.80;0.47;;;;;;;;;;5073139;28;20049;-80
2023/01/11 07:22:23;;;;;;;1.55;0.50;;;;;;;;;;5068412;28;20048;-79
2023/01/11 07:24:50;;;;;;;0.88;0.50;;;;;;;;;;5081092;28;20522;-82
2023/01/11 07:27:18;;;;;;;0.70;0.47;;;;;;;;;;5076470;28;20059;-80
2023/01/11 07:29:45;;;;;;;0.90;0.50;;;;;;;;;;5049392;28;20049;-79
2023/01/11 07:32:12;;;;;;;2.55;0.57;;;;;;;;;;5055070;28;20067;-80
2023/01/11 07:34:38;;;;;;;1.25;0.60;;;;;;;;;;5068546;28;20079;-80
2023/01/11 07:37:04;;;;;;;1.25;0.40;;;;;;;;;;5076070;28;20044;-77
2023/01/11 07:39:32;;;;;;;1.05;0.40;;;;;;;;;;5066298;28;20044;-80
2023/01/11 07:44:54;;;;;;;1.02;0.57;;;;;;;;;;5075825;28;20056;-79
2023/01/11 07:47:20;;;;;;;1.10;0.52;;;;;;;;;;5075457;28;20048;-79
2023/01/11 07:49:47;;;;;;;1.33;0.50;;;;;;;;;;5060134;28;20648;-80
2023/01/11 07:52:13;;;;;;;0.70;0.35;;;;;;;;;;5052662;28;20164;-77
2023/01/11 07:54:40;;;;;;;0.60;0.30;;;;;;;;;;5063491;28;20041;-78
2023/01/11 07:57:06;;;;;;;0.70;0.50;;;;;;;;;;5078815;28;20331;-81
2023/01/11 07:59:32;;;;;;;0.68;0.47;;;;;;;;;;5078770;28;20107;-81
2023/01/11 08:01:59;;;;;;;0.70;0.30;;;;;;;;;;5079870;28;20427;-80
2023/01/11 08:04:25;;;;;;;2.55;0.60;;;;;;;;;;5078196;28;20139;-80
2023/01/11 08:06:51;;;;;;;1.23;0.50;;;;;;;;;;5080519;28;20056;-81
2023/01/11 08:09:18;;;;;;;0.63;0.40;;;;;;;;;;5080670;28;20070;-81
2023/01/11 08:14:38;;;;;;;0.65;0.50;;;;;;;;;;5076129;28;20076;-82
2023/01/11 08:17:09;;;;;;;0.50;0.40;;;;;;;;;;5076229;28;20049;-77
2023/01/11 08:19:35;;;;;;;0.60;0.32;;;;;;;;;;5067761;28;20048;-80
2023/01/11 08:22:02;;;;;;;0.77;0.40;;;;;;;;;;5064008;28;20052;-78
2023/01/11 08:24:28;;;;;;;8.77;0.70;;;;;;;;;;5048869;28;20052;-77
2023/01/11 08:26:55;;;;;;;0.85;0.45;;;;;;;;;;5070024;28;20087;-81
2023/01/11 08:29:21;;;;;;;1.85;0.60;;;;;;;;;;5063522;28;20095;-77
2023/01/11 08:31:48;;;;;;;1.42;0.50;;;;;;;;;;5067231;28;20505;-80
2023/01/11 08:34:14;;;;;;;1.00;0.60;;;;;;;;;;5059769;28;20049;-80
2023/01/11 08:36:41;;;;;;;0.98;0.40;;;;;;;;;;5056521;28;20049;-81
2023/01/11 08:39:07;;;;;;;0.22;0.22;;;;;;;;;;5055923;28;20449;-81
2023/01/11 08:41:34;;;;;;;0.98;0.40;;;;;;;;;;5038387;28;20053;-80
2023/01/11 08:44:00;;;;;;;0.85;0.30;;;;;;;;;;5056889;28;20059;-79
2023/01/11 08:46:27;;;;;;;0.85;0.38;;;;;;;;;;5058290;28;20056;-80
2023/01/11 08:48:53;;;;;;;0.77;0.30;;;;;;;;;;5056294;28;20052;-78
2023/01/11 08:51:20;;;;;;;0.50;0.30;;;;;;;;;;5056584;28;20440;-79
2023/01/11 08:53:47;;;;;;;3.03;0.40;;;;;;;;;;5055449;28;20053;-80
2023/01/11 08:56:13;;;;;;;0.55;0.20;;;;;;;;;;5055954;28;20060;-78
2023/01/11 08:58:39;;;;;;;0.50;0.38;;;;;;;;;;5055883;28;20045;-80
2023/01/11 09:01:08;;;;;;;0.85;0.35;;;;;;;;;;5056623;28;20049;-80
2023/01/11 09:03:34;;;;;;;0.82;0.30;;;;;;;;;;5062775;28;20056;-80
2023/01/11 09:06:01;;;;;;;0.43;0.28;;;;;;;;;;5058043;28;20055;-81
2023/01/11 09:08:28;;;;;;;0.60;0.28;;;;;;;;;;5078017;28;20044;-79
2023/01/11 09:10:58;;;;;;;0.93;0.30;;;;;;;;;;5079632;28;20116;-78
2023/01/11 09:13:25;;;;;;;0.68;0.40;;;;;;;;;;5075495;28;20122;-80
2023/01/11 09:15:55;;;;;;;0.35;0.30;;;;;;;;;;5075698;28;20139;-80
2023/01/11 09:18:22;;;;;;;1.40;0.30;;;;;;;;;;5060281;28;20049;-80
2023/01/11 09:20:49;;;;;;;1.38;0.40;;;;;;;;;;5055228;28;20053;-79
2023/01/11 09:23:16;;;;;;;1.98;0.30;;;;;;;;;;5063782;28;20112;-80
2023/01/11 09:25:42;;;;;;;0.95;0.30;;;;;;;;;;5069666;28;20052;-79
2023/01/11 09:28:08;;;;;;;0.40;0.20;;;;;;;;;;5063082;28;20068;-79
2023/01/11 09:30:37;;;;;;;0.63;0.30;;;;;;;;;;5069212;28;20049;-79
2023/01/11 09:33:05;;;;;;;0.30;0.30;;;;;;;;;;5056423;28;20052;-81
2023/01/11 09:35:33;;;;;;;0.43;0.30;;;;;;;;;;5056520;28;20524;-78
2023/01/11 09:38:01;;;;;;;0.40;0.30;;;;;;;;;;5065706;28;20060;-80
2023/01/11 09:40:46;;;;;;;0.60;0.25;;;;;;;;;;5067904;28;20507;-81
2023/01/11 09:43:14;;;;;;;1.55;0.20;;;;;;;;;;5075735;28;20059;-81
2023/01/11 09:45:45;;;;;;;0.65;0.30;;;;;;;;;;5075909;28;20489;-81
2023/01/11 09:48:35;;;;;;;0.45;0.28;;;;;;;;;;5077342;28;20060;-79
2023/01/11 09:51:03;;;;;;;0.30;0.30;;;;;;;;;;5076856;28;20116;-80
2023/01/11 09:53:36;;;;;;;2.08;0.20;;;;;;;;;;5075593;28;20137;-80
2023/01/11 09:56:05;;;;;;;0.45;0.30;;;;;;;;;;5075603;28;20132;-79
2023/01/11 09:58:41;;;;;;;0.75;0.28;;;;;;;;;;5074638;28;20072;-78
2023/01/11 10:01:30;;;;;;;0.47;0.30;;;;;;;;;;5075553;28;20178;-80
2023/01/11 10:04:08;;;;;;;0.57;0.40;;;;;;;;;;5076148;28;20143;-79
2023/01/11 10:06:43;;;;;;;1.08;0.30;;;;;;;;;;5075790;28;20628;-80
2023/01/11 10:09:30;;;;;;;0.60;0.40;;;;;;;;;;5074774;28;20050;-79
2023/01/11 10:12:24;;;;;;;0.45;0.30;;;;;;;;;;5031209;28;20059;-80
2023/01/11 10:15:26;;;;;;;1.65;0.40;;;;;;;;;;5074762;28;20056;-80
2023/01/11 10:18:28;;;;;;;0.45;0.30;;;;;;;;;;5076033;28;20049;-81
2023/01/11 10:21:30;;;;;;;1.67;0.50;;;;;;;;;;5075992;28;20382;-81
2023/01/11 10:24:02;;;;;;;1.02;0.40;;;;;;;;;;5073809;28;20173;-81
2023/01/11 10:26:35;;;;;;;0.60;0.30;;;;;;;;;;5074022;28;20049;-78
2023/01/11 10:29:37;;;;;;;0.95;0.35;;;;;;;;;;5056595;28;20048;-81
2023/01/11 10:32:21;;;;;;;1.33;0.50;;;;;;;;;;5075006;28;20052;-80
2023/01/11 10:41:01;;;;;;;0.20;0.20;;;;;;;;;;5067040;28;20052;-80
2023/01/11 10:43:24;;;;;;;0.75;0.20;;;;;;;;;;5074659;28;20048;-81
2023/01/11 10:45:52;;;;;;;0.55;0.30;;;;;;;;;;5056818;28;20048;-80
2023/01/11 10:48:25;;;;;;;0.73;0.40;;;;;;;;;;5075976;28;20049;-81
2023/01/11 10:50:57;;;;;;;0.57;0.35;;;;;;;;;;5073976;28;20048;-79
2023/01/11 10:53:25;;;;;;;0.22;0.20;;;;;;;;;;5074293;28;20083;-79
2023/01/11 10:56:03;;;;;;;0.43;0.30;;;;;;;;;;5077408;28;20477;-81
2023/01/11 10:59:03;;;;;;;0.65;0.40;;;;;;;;;;5077147;28;20056;-81
2023/01/11 11:01:44;;;;;;;2.03;0.30;;;;;;;;;;5012480;28;20049;-80
2023/01/11 11:04:20;;;;;;;0.38;0.30;;;;;;;;;;5060447;28;20045;-81
2023/01/11 11:07:05;;;;;;;0.90;0.45;;;;;;;;;;5061828;28;20053;-80
2023/01/11 11:09:53;;;;;;;0.13;0.13;;;;;;;;;;5059981;28;20053;-80
2023/01/11 11:12:27;;;;;;;0.90;0.40;;;;;;;;;;5072770;28;20082;-80
2023/01/11 11:15:03;;;;;;;1.10;0.40;;;;;;;;;;5079675;28;20041;-80
2023/01/11 11:17:31;;;;;;;0.55;0.28;;;;;;;;;;5081953;28;20041;-80
2023/01/11 11:19:58;;;;;;;0.60;0.30;;;;;;;;;;5072694;28;20123;-80
2023/01/11 11:22:25;;;;;;;0.70;0.38;;;;;;;;;;5079554;28;20045;-81
2023/01/11 11:24:58;;;;;;;0.50;0.40;;;;;;;;;;5071517;28;20041;-80
2023/01/11 11:27:27;;;;;;;0.95;0.30;;;;;;;;;;5082272;28;20076;-82
2023/01/11 11:29:55;;;;;;;0.63;0.40;;;;;;;;;;5081176;28;20049;-80
2023/01/11 11:32:34;;;;;;;0.57;0.30;;;;;;;;;;5068343;28;20055;-77
2023/01/11 11:35:02;;;;;;;0.70;0.30;;;;;;;;;;5069418;28;20052;-80
2023/01/11 11:37:34;;;;;;;0.50;0.30;;;;;;;;;;5066202;28;20041;-81
2023/01/11 11:40:01;;;;;;;7.93;0.50;;;;;;;;;;5068705;28;20070;-80
2023/01/11 11:42:27;;;;;;;0.57;0.38;;;;;;;;;;5075139;28;20458;-78
2023/01/11 11:45:13;;;;;;;0.45;0.30;;;;;;;;;;5066429;28;20053;-82
2023/01/11 11:47:40;;;;;;;;;;;;;;;;;;5068708;28;20072;-81
2023/01/11 11:50:18;;;;;;;0.52;0.22;;;;;;;;;;5063553;28;19925;-78
2023/01/11 11:53:04;;;;;;;0.65;0.32;;;;;;;;;;5050052;28;20053;-78
2023/01/11 11:55:32;;;;;;;2.30;0.30;;;;;;;;;;5051863;28;20053;-79
2023/01/11 11:58:03;;;;;;;0.32;0.30;;;;;;;;;;5036991;28;20131;-77
2023/01/11 12:00:33;;;;;;;0.57;0.30;;;;;;;;;;5051373;28;20107;-77
2023/01/11 12:03:03;;;;;;;0.90;0.40;;;;;;;;;;5056047;28;20049;-81
2023/01/11 12:05:30;;;;;;;0.32;0.20;;;;;;;;;;5055349;28;20768;-81
2023/01/11 12:07:56;;;;;;;0.77;0.30;;;;;;;;;;5059004;28;20055;-80
2023/01/11 12:10:24;;;;;;;0.30;0.20;;;;;;;;;;5058154;28;20056;-81
2023/01/11 12:12:58;;;;;;;0.90;0.43;;;;;;;;;;5057438;28;20049;-81
2023/01/11 12:15:28;;;;;;;1.27;0.30;;;;;;;;;;5055837;28;20045;-77
2023/01/11 12:18:12;;;;;;;0.25;0.20;;;;;;;;;;5054831;28;20125;-79
2023/01/11 12:20:41;;;;;;;0.45;0.30;;;;;;;;;;5037332;28;20140;-80
2023/01/11 12:23:11;;;;;;;0.77;0.30;;;;;;;;;;5056095;28;20152;-80
2023/01/11 12:25:42;;;;;;;0.60;0.30;;;;;;;;;;5055822;28;20065;-81
2023/01/11 12:28:18;;;;;;;1.15;0.50;;;;;;;;;;5059663;28;20044;-81
2023/01/11 12:30:54;;;;;;;1.00;0.40;;;;;;;;;;5076831;28;20135;-80
2023/01/11 12:33:26;;;;;;;0.70;0.40;;;;;;;;;;5077060;28;20110;-81
2023/01/11 12:36:04;;;;;;;0.70;0.35;;;;;;;;;;5077141;28;20646;-81
2023/01/11 12:38:40;;;;;;;2.20;0.60;;;;;;;;;;5073479;28;20037;-79
2023/01/11 12:41:06;;;;;;;;;;;;;;;;;;5058492;28;20048;-80
2023/01/11 12:43:43;;;;;;;1.10;0.52;;;;;;;;;;5058728;28;19931;-80
2023/01/11 12:46:09;;;;;;;;;;;;;;;;;;5077976;28;20510;-80
2023/01/11 12:48:35;;;;;;;0.80;0.30;;;;;;;;;;5076102;28;19927;-80
2023/01/11 12:51:08;;;;;;;0.65;0.40;;;;;;;;;;5061860;28;20053;-80
2023/01/11 12:53:40;;;;;;;1.25;0.40;;;;;;;;;;5055715;28;20845;-81
2023/01/11 12:56:24;;;;;;;0.88;0.55;;;;;;;;;;5057228;28;20071;-80
2023/01/11 12:58:55;;;;;;;3.05;0.40;;;;;;;;;;5073272;28;20108;-81
2023/01/11 13:01:40;;;;;;;0.93;0.50;;;;;;;;;;5076198;28;20366;-79
2023/01/11 13:04:10;;;;;;;1.42;0.50;;;;;;;;;;5075038;28;20081;-79
2023/01/11 13:06:56;;;;;;;2.03;0.40;;;;;;;;;;5066790;28;20076;-79
2023/01/11 13:09:49;;;;;;;1.25;0.50;;;;;;;;;;5075878;28;20056;-78
2023/01/11 13:12:21;;;;;;;1.77;0.50;;;;;;;;;;5036338;28;20084;-80
2023/01/11 13:14:51;;;;;;;1.15;0.50;;;;;;;;;;5075882;28;20078;-78
2023/01/11 13:17:17;;;;;;;1.52;0.50;;;;;;;;;;5075781;28;20055;-79
2023/01/11 13:19:46;;;;;;;2.58;0.50;;;;;;;;;;5071081;28;20058;-77
2023/01/11 13:22:17;;;;;;;0.90;0.50;;;;;;;;;;5073108;28;20109;-76
2023/01/11 13:24:48;;;;;;;1.00;0.50;;;;;;;;;;5057153;28;20057;-80
2023/01/11 13:27:16;;;;;;;2.20;0.60;;;;;;;;;;5074335;28;20053;-80
2023/01/11 13:29:44;;;;;;;1.42;0.50;;;;;;;;;;5073179;28;20126;-79
2023/01/11 13:32:13;;;;;;;1.05;0.40;;;;;;;;;;5073414;28;20052;-79
2023/01/11 13:34:44;;;;;;;2.55;0.40;;;;;;;;;;5067065;28;20415;-78
2023/01/11 13:37:18;;;;;;;1.58;0.50;;;;;;;;;;5071491;28;20040;-77
2023/01/11 13:39:52;;;;;;;1.00;0.63;;;;;;;;;;5057043;28;20049;-79
2023/01/11 13:42:24;;;;;;;3.58;0.65;;;;;;;;;;5070798;28;20073;-79
2023/01/11 13:44:54;;;;;;;2.03;0.57;;;;;;;;;;5057910;28;20072;-78
2023/01/11 13:47:39;;;;;;;1.67;0.60;;;;;;;;;;5054460;28;20052;-79
2023/01/11 13:50:06;;;;;;;1.80;0.50;;;;;;;;;;5055539;28;20424;-79
2023/01/11 13:52:32;;;;;;;2.47;0.60;;;;;;;;;;5054681;28;20098;-79
2023/01/11 13:54:59;;;;;;;3.30;0.47;;;;;;;;;;5055899;28;20053;-79
2023/01/11 13:57:28;;;;;;;3.42;0.60;;;;;;;;;;5057368;28;20087;-80
2023/01/11 14:00:02;;;;;;;1.85;0.45;;;;;;;;;;5055577;28;20045;-79
2023/01/11 14:02:37;;;;;;;3.58;0.57;;;;;;;;;;5055230;28;20481;-79
2023/01/11 14:05:20;;;;;;;0.95;0.47;;;;;;;;;;5042057;28;20080;-79
2023/01/11 14:07:54;;;;;;;2.42;0.50;;;;;;;;;;5058236;28;20067;-80
2023/01/11 14:10:21;;;;;;;2.55;0.57;;;;;;;;;;5057990;28;20079;-81
2023/01/11 14:13:06;;;;;;;0.75;0.50;;;;;;;;;;5057900;28;20063;-80
2023/01/11 14:15:36;;;;;;;1.50;0.80;;;;;;;;;;5056983;28;20056;-79
2023/01/11 14:18:21;;;;;;;1.50;0.50;;;;;;;;;;5061684;28;20052;-78
2023/01/11 14:20:57;;;;;;;1.08;0.60;;;;;;;;;;5065856;28;20084;-79
2023/01/11 14:23:27;;;;;;;3.03;0.63;;;;;;;;;;5064531;28;20054;-79
2023/01/11 14:26:00;;;;;;;2.75;0.70;;;;;;;;;;5060029;28;20059;-79
2023/01/11 14:28:32;;;;;;;2.70;0.75;;;;;;;;;;5064840;28;20096;-76
2023/01/11 14:30:59;;;;;;;2.25;0.60;;;;;;;;;;5064128;28;20135;-80
2023/01/11 14:33:28;;;;;;;2.10;0.60;;;;;;;;;;5066299;28;20090;-81
2023/01/11 14:36:01;;;;;;;1.23;0.50;;;;;;;;;;5077008;28;20063;-81
2023/01/11 14:38:30;;;;;;;1.38;0.60;;;;;;;;;;5074092;28;20131;-79
2023/01/11 14:40:57;;;;;;;1.60;0.60;;;;;;;;;;5076878;28;20044;-79
2023/01/11 14:43:43;;;;;;;1.77;0.73;;;;;;;;;;5079423;28;20044;-78
2023/01/11 14:46:28;;;;;;;0.98;0.50;;;;;;;;;;5079250;28;20082;-80
2023/01/11 14:49:15;;;;;;;2.70;0.70;;;;;;;;;;5046214;28;20503;-79
2023/01/11 14:51:41;;;;;;;2.63;0.90;;;;;;;;;;5009634;28;20415;-78
2023/01/11 14:54:20;;;;;;;1.63;0.70;;;;;;;;;;5041763;28;20049;-80
2023/01/11 14:56:48;;;;;;;1.85;0.85;;;;;;;;;;5065091;28;20084;-81
2023/01/11 14:59:27;;;;;;;2.50;0.80;;;;;;;;;;5077001;28;20052;-78
2023/01/11 15:02:03;;;;;;;1.70;0.88;;;;;;;;;;5082987;28;20055;-80
2023/01/11 15:04:33;;;;;;;3.25;0.95;;;;;;;;;;5079548;28;20098;-80
2023/01/11 15:07:00;;;;;;;2.03;0.70;;;;;;;;;;5079000;28;20080;-79
2023/01/11 15:09:43;;;;;;;3.17;0.80;;;;;;;;;;5078542;28;20052;-81
2023/01/11 15:12:18;;;;;;;2.00;0.70;;;;;;;;;;5078509;28;20056;-79
2023/01/11 15:14:56;;;;;;;1.40;0.77;;;;;;;;;;5078069;28;20049;-80
2023/01/11 15:20:11;;;;;;;1.42;0.77;;;;;;;;;;5077947;28;20045;-80
2023/01/11 15:22:38;;;;;;;3.20;1.15;;;;;;;;;;5078131;28;20052;-80
2023/01/11 15:25:05;;;;;;;3.40;1.05;;;;;;;;;;5079317;28;20049;-80
2023/01/11 15:27:38;;;;;;;1.42;0.60;;;;;;;;;;5062796;28;20076;-81
2023/01/11 15:30:12;;;;;;;2.03;0.70;;;;;;;;;;5077336;28;20058;-79
2023/01/11 15:32:40;;;;;;;1.48;0.80;;;;;;;;;;5078280;28;20052;-79
2023/01/11 15:35:22;;;;;;;3.08;0.77;;;;;;;;;;5059302;28;20048;-81